Audubon Park, New Jersey
Current Conditions -  °F | °C
As of 8:54 AM on Friday 31 Oct 2014 (Local Time) from KPHL Reporting Station
Broken Clouds Broken Clouds  
Wind Chill: 39°   Ceiling: 25000
Heat Index: 43°   Visibility: 10mi
Dew Point: 34°   Wind: 7mph
Humidity: 71%   Direction: 20°NNE
Pressure: 30.02"   Gusts: NA
Location:  39.891°N, 75.0738°W
Report Text: KPHL 311254Z 02006KT 10SM FEW055 BKN250 06/01 A3002 RMK AO2 SLP165 T00610011
Loading
Personal Weather Stations






























Interactive Weather Map New forecast layout! Learn more

10-Day Weather Forecast

Advertisements
Track Severe Weather on mobile